sensor_id;sensor_type;location;lat;lon;timestamp;temperature;humidity
15384;DHT22;7790;53.022;12.968;2023-04-08T00:02:33;20.50;44.50
15384;DHT22;7790;53.022;12.968;2023-04-08T00:06:34;20.60;44.50
15384;DHT22;7790;53.022;12.968;2023-04-08T00:10:35;20.70;44.30
15384;DHT22;7790;53.022;12.968;2023-04-08T00:14:36;20.80;44.20
15384;DHT22;7790;53.022;12.968;2023-04-08T00:18:38;20.90;44.20
15384;DHT22;7790;53.022;12.968;2023-04-08T00:22:39;20.90;44.00
15384;DHT22;7790;53.022;12.968;2023-04-08T00:26:39;20.90;43.90
15384;DHT22;7790;53.022;12.968;2023-04-08T00:30:41;21.00;44.00
15384;DHT22;7790;53.022;12.968;2023-04-08T00:34:41;21.00;43.90
15384;DHT22;7790;53.022;12.968;2023-04-08T00:38:44;21.00;43.90
15384;DHT22;7790;53.022;12.968;2023-04-08T00:42:44;21.00;43.80
15384;DHT22;7790;53.022;12.968;2023-04-08T00:46:45;21.00;43.80
15384;DHT22;7790;53.022;12.968;2023-04-08T00:50:47;21.00;43.90
15384;DHT22;7790;53.022;12.968;2023-04-08T00:54:48;20.90;43.90
15384;DHT22;7790;53.022;12.968;2023-04-08T00:58:49;20.80;44.00
15384;DHT22;7790;53.022;12.968;2023-04-08T01:03:07;20.70;44.10
15384;DHT22;7790;53.022;12.968;2023-04-08T01:07:33;20.60;44.20
15384;DHT22;7790;53.022;12.968;2023-04-08T01:11:37;20.50;44.20
15384;DHT22;7790;53.022;12.968;2023-04-08T01:15:41;20.50;44.30
15384;DHT22;7790;53.022;12.968;2023-04-08T01:19:44;20.50;44.30
15384;DHT22;7790;53.022;12.968;2023-04-08T01:24:30;20.60;44.20
15384;DHT22;7790;53.022;12.968;2023-04-08T01:28:14;20.70;44.00
15384;DHT22;7790;53.022;12.968;2023-04-08T01:32:16;20.80;43.90
15384;DHT22;7790;53.022;12.968;2023-04-08T01:36:19;20.80;43.80
15384;DHT22;7790;53.022;12.968;2023-04-08T01:40:21;20.90;43.80
15384;DHT22;7790;53.022;12.968;2023-04-08T01:44:22;20.90;43.70
15384;DHT22;7790;53.022;12.968;2023-04-08T01:48:25;21.00;43.70
15384;DHT22;7790;53.022;12.968;2023-04-08T01:52:28;21.00;43.60
15384;DHT22;7790;53.022;12.968;2023-04-08T01:56:32;21.10;43.60
15384;DHT22;7790;53.022;12.968;2023-04-08T02:00:36;21.00;43.60
15384;DHT22;7790;53.022;12.968;2023-04-08T02:04:39;21.00;43.60
15384;DHT22;7790;53.022;12.968;2023-04-08T02:08:40;20.90;43.60
15384;DHT22;7790;53.022;12.968;2023-04-08T02:12:42;20.90;43.70
15384;DHT22;7790;53.022;12.968;2023-04-08T02:16:52;20.80;43.80
15384;DHT22;7790;53.022;12.968;2023-04-08T02:21:03;20.70;43.70
15384;DHT22;7790;53.022;12.968;2023-04-08T02:25:14;20.60;43.90
15384;DHT22;7790;53.022;12.968;2023-04-08T02:29:16;20.50;43.90
15384;DHT22;7790;53.022;12.968;2023-04-08T02:33:21;20.40;44.00
15384;DHT22;7790;53.022;12.968;2023-04-08T02:37:25;20.50;43.90
15384;DHT22;7790;53.022;12.968;2023-04-08T02:41:30;20.60;43.70
15384;DHT22;7790;53.022;12.968;2023-04-08T02:45:34;20.70;43.50
15384;DHT22;7790;53.022;12.968;2023-04-08T02:49:37;20.80;43.50
15384;DHT22;7790;53.022;12.968;2023-04-08T02:53:38;20.80;43.30
15384;DHT22;7790;53.022;12.968;2023-04-08T02:57:40;20.90;43.30
15384;DHT22;7790;53.022;12.968;2023-04-08T03:01:42;20.90;43.30
15384;DHT22;7790;53.022;12.968;2023-04-08T03:05:42;21.00;43.30
15384;DHT22;7790;53.022;12.968;2023-04-08T03:09:43;21.00;43.20
15384;DHT22;7790;53.022;12.968;2023-04-08T03:13:44;21.00;43.10
15384;DHT22;7790;53.022;12.968;2023-04-08T03:17:46;21.00;43.20
15384;DHT22;7790;53.022;12.968;2023-04-08T03:21:47;21.00;43.20
15384;DHT22;7790;53.022;12.968;2023-04-08T03:25:48;20.90;43.20
15384;DHT22;7790;53.022;12.968;2023-04-08T03:29:48;20.80;43.10
15384;DHT22;7790;53.022;12.968;2023-04-08T03:33:49;20.70;43.30
15384;DHT22;7790;53.022;12.968;2023-04-08T03:37:51;20.60;43.40
15384;DHT22;7790;53.022;12.968;2023-04-08T03:41:54;20.60;43.60
15384;DHT22;7790;53.022;12.968;2023-04-08T03:45:55;20.50;43.60
15384;DHT22;7790;53.022;12.968;2023-04-08T03:49:56;20.50;43.60
15384;DHT22;7790;53.022;12.968;2023-04-08T03:53:57;20.60;43.40
15384;DHT22;7790;53.022;12.968;2023-04-08T03:57:58;20.70;43.30
15384;DHT22;7790;53.022;12.968;2023-04-08T04:01:58;20.70;43.20
15384;DHT22;7790;53.022;12.968;2023-04-08T04:05:59;20.80;43.10
15384;DHT22;7790;53.022;12.968;2023-04-08T04:10:00;20.90;43.10
15384;DHT22;7790;53.022;12.968;2023-04-08T04:14:02;20.90;43.10
15384;DHT22;7790;53.022;12.968;2023-04-08T04:18:03;20.90;43.10
15384;DHT22;7790;53.022;12.968;2023-04-08T04:22:04;21.00;43.00
15384;DHT22;7790;53.022;12.968;2023-04-08T04:26:08;21.00;42.90
15384;DHT22;7790;53.022;12.968;2023-04-08T04:30:09;20.90;45.10
15384;DHT22;7790;53.022;12.968;2023-04-08T04:34:14;20.90;45.30
15384;DHT22;7790;53.022;12.968;2023-04-08T04:38:15;20.90;45.10
15384;DHT22;7790;53.022;12.968;2023-04-08T04:42:16;20.90;45.00
15384;DHT22;7790;53.022;12.968;2023-04-08T04:46:17;20.80;44.80
15384;DHT22;7790;53.022;12.968;2023-04-08T04:50:18;20.70;44.60
15384;DHT22;7790;53.022;12.968;2023-04-08T04:54:19;20.60;44.50
15384;DHT22;7790;53.022;12.968;2023-04-08T04:58:20;20.50;44.60
15384;DHT22;7790;53.022;12.968;2023-04-08T05:02:21;20.50;44.60
15384;DHT22;7790;53.022;12.968;2023-04-08T05:06:22;20.60;44.80
15384;DHT22;7790;53.022;12.968;2023-04-08T05:10:23;20.60;44.90
15384;DHT22;7790;53.022;12.968;2023-04-08T05:14:24;20.80;44.80
15384;DHT22;7790;53.022;12.968;2023-04-08T05:18:25;20.90;44.50
15384;DHT22;7790;53.022;12.968;2023-04-08T05:22:26;20.90;44.50
15384;DHT22;7790;53.022;12.968;2023-04-08T05:26:27;20.90;44.30
15384;DHT22;7790;53.022;12.968;2023-04-08T05:30:28;20.90;44.20
15384;DHT22;7790;53.022;12.968;2023-04-08T05:34:30;20.90;44.20
15384;DHT22;7790;53.022;12.968;2023-04-08T05:38:31;20.80;44.70
15384;DHT22;7790;53.022;12.968;2023-04-08T05:42:32;20.70;44.30
15384;DHT22;7790;53.022;12.968;2023-04-08T05:46:33;20.60;44.40
15384;DHT22;7790;53.022;12.968;2023-04-08T05:50:37;20.60;44.60
15384;DHT22;7790;53.022;12.968;2023-04-08T05:54:41;20.50;44.70
15384;DHT22;7790;53.022;12.968;2023-04-08T05:58:43;20.40;44.70
15384;DHT22;7790;53.022;12.968;2023-04-08T06:02:44;20.30;44.70
15384;DHT22;7790;53.022;12.968;2023-04-08T06:06:45;20.30;45.00
15384;DHT22;7790;53.022;12.968;2023-04-08T06:10:50;20.50;44.70
15384;DHT22;7790;53.022;12.968;2023-04-08T06:14:55;20.70;44.40
15384;DHT22;7790;53.022;12.968;2023-04-08T06:18:56;20.70;43.50
15384;DHT22;7790;53.022;12.968;2023-04-08T06:22:56;20.70;43.80
15384;DHT22;7790;53.022;12.968;2023-04-08T06:26:57;20.90;44.00
15384;DHT22;7790;53.022;12.968;2023-04-08T06:30:58;21.00;44.10
15384;DHT22;7790;53.022;12.968;2023-04-08T06:34:59;21.10;44.20
15384;DHT22;7790;53.022;12.968;2023-04-08T06:39:00;21.10;44.80
15384;DHT22;7790;53.022;12.968;2023-04-08T06:43:01;21.10;44.30
15384;DHT22;7790;53.022;12.968;2023-04-08T06:47:08;21.20;44.40
15384;DHT22;7790;53.022;12.968;2023-04-08T06:51:09;21.10;44.30
15384;DHT22;7790;53.022;12.968;2023-04-08T06:55:11;21.10;44.50
15384;DHT22;7790;53.022;12.968;2023-04-08T06:59:12;21.00;44.50
15384;DHT22;7790;53.022;12.968;2023-04-08T07:03:12;20.90;44.50
15384;DHT22;7790;53.022;12.968;2023-04-08T07:07:13;20.80;44.40
15384;DHT22;7790;53.022;12.968;2023-04-08T07:11:15;20.70;44.40
15384;DHT22;7790;53.022;12.968;2023-04-08T07:15:16;20.60;44.50
15384;DHT22;7790;53.022;12.968;2023-04-08T07:19:17;20.60;44.40
15384;DHT22;7790;53.022;12.968;2023-04-08T07:23:18;20.50;44.50
15384;DHT22;7790;53.022;12.968;2023-04-08T07:27:19;20.50;44.50
15384;DHT22;7790;53.022;12.968;2023-04-08T07:31:20;20.50;44.40
15384;DHT22;7790;53.022;12.968;2023-04-08T07:35:21;20.40;44.40
15384;DHT22;7790;53.022;12.968;2023-04-08T07:39:25;20.30;44.60
15384;DHT22;7790;53.022;12.968;2023-04-08T07:43:26;20.30;44.60
15384;DHT22;7790;53.022;12.968;2023-04-08T07:47:27;20.30;44.70
15384;DHT22;7790;53.022;12.968;2023-04-08T07:51:28;20.50;44.40
15384;DHT22;7790;53.022;12.968;2023-04-08T07:55:33;20.60;44.00
15384;DHT22;7790;53.022;12.968;2023-04-08T07:59:34;20.80;43.90
15384;DHT22;7790;53.022;12.968;2023-04-08T08:03:35;20.90;43.80
15384;DHT22;7790;53.022;12.968;2023-04-08T08:07:36;20.90;43.60
15384;DHT22;7790;53.022;12.968;2023-04-08T08:11:37;21.00;43.60
15384;DHT22;7790;53.022;12.968;2023-04-08T08:15:38;21.00;43.60
15384;DHT22;7790;53.022;12.968;2023-04-08T08:19:39;21.10;43.90
15384;DHT22;7790;53.022;12.968;2023-04-08T08:23:40;21.10;44.00
15384;DHT22;7790;53.022;12.968;2023-04-08T08:27:41;21.10;43.90
15384;DHT22;7790;53.022;12.968;2023-04-08T08:31:42;21.10;44.10
15384;DHT22;7790;53.022;12.968;2023-04-08T08:35:43;21.10;44.10
15384;DHT22;7790;53.022;12.968;2023-04-08T08:39:43;21.10;44.20
15384;DHT22;7790;53.022;12.968;2023-04-08T08:43:45;21.00;44.20
15384;DHT22;7790;53.022;12.968;2023-04-08T08:47:46;21.00;44.00
15384;DHT22;7790;53.022;12.968;2023-04-08T08:51:47;20.90;43.90
15384;DHT22;7790;53.022;12.968;2023-04-08T08:55:48;20.90;43.90
15384;DHT22;7790;53.022;12.968;2023-04-08T08:59:49;20.80;43.80
15384;DHT22;7790;53.022;12.968;2023-04-08T09:08:25;20.70;43.80
15384;DHT22;7790;53.022;12.968;2023-04-08T09:12:27;20.60;44.00
15384;DHT22;7790;53.022;12.968;2023-04-08T09:16:29;20.70;43.90
15384;DHT22;7790;53.022;12.968;2023-04-08T09:20:30;20.80;43.60
15384;DHT22;7790;53.022;12.968;2023-04-08T09:24:31;20.90;43.40
15384;DHT22;7790;53.022;12.968;2023-04-08T09:28:32;21.00;43.30
15384;DHT22;7790;53.022;12.968;2023-04-08T09:32:47;21.00;42.70
15384;DHT22;7790;53.022;12.968;2023-04-08T09:36:49;20.60;41.70
15384;DHT22;7790;53.022;12.968;2023-04-08T09:40:50;20.60;41.40
15384;DHT22;7790;53.022;12.968;2023-04-08T09:44:54;20.60;41.30
15384;DHT22;7790;53.022;12.968;2023-04-08T09:49:06;20.20;41.80
15384;DHT22;7790;53.022;12.968;2023-04-08T09:53:20;20.10;42.00
15384;DHT22;7790;53.022;12.968;2023-04-08T10:01:59;20.40;42.70
15384;DHT22;7790;53.022;12.968;2023-04-08T10:06:01;20.80;42.40
15384;DHT22;7790;53.022;12.968;2023-04-08T10:10:03;20.90;42.50
15384;DHT22;7790;53.022;12.968;2023-04-08T10:14:04;20.90;42.50
15384;DHT22;7790;53.022;12.968;2023-04-08T10:26:33;20.80;42.60
15384;DHT22;7790;53.022;12.968;2023-04-08T10:34:50;20.70;42.80
15384;DHT22;7790;53.022;12.968;2023-04-08T10:38:52;20.60;42.90
15384;DHT22;7790;53.022;12.968;2023-04-08T10:42:57;20.70;42.60
15384;DHT22;7790;53.022;12.968;2023-04-08T10:46:58;20.80;42.50
15384;DHT22;7790;53.022;12.968;2023-04-08T10:51:04;20.90;42.50
15384;DHT22;7790;53.022;12.968;2023-04-08T10:55:05;21.00;42.50
15384;DHT22;7790;53.022;12.968;2023-04-08T10:59:06;21.00;42.30
15384;DHT22;7790;53.022;12.968;2023-04-08T11:03:10;21.10;42.20
15384;DHT22;7790;53.022;12.968;2023-04-08T11:07:11;21.20;42.20
15384;DHT22;7790;53.022;12.968;2023-04-08T11:11:12;21.20;42.20
15384;DHT22;7790;53.022;12.968;2023-04-08T11:15:14;21.30;42.40
15384;DHT22;7790;53.022;12.968;2023-04-08T11:19:15;21.30;42.30
15384;DHT22;7790;53.022;12.968;2023-04-08T11:23:16;21.30;42.40
15384;DHT22;7790;53.022;12.968;2023-04-08T11:27:17;21.30;42.40
15384;DHT22;7790;53.022;12.968;2023-04-08T11:31:19;21.20;42.40
15384;DHT22;7790;53.022;12.968;2023-04-08T11:35:22;21.10;42.50
15384;DHT22;7790;53.022;12.968;2023-04-08T11:39:23;21.10;42.50
15384;DHT22;7790;53.022;12.968;2023-04-08T11:43:24;21.00;42.50
15384;DHT22;7790;53.022;12.968;2023-04-08T11:47:32;20.90;42.70
15384;DHT22;7790;53.022;12.968;2023-04-08T11:51:34;20.90;42.80
15384;DHT22;7790;53.022;12.968;2023-04-08T11:55:35;20.80;42.90
15384;DHT22;7790;53.022;12.968;2023-04-08T11:59:36;20.90;42.80
15384;DHT22;7790;53.022;12.968;2023-04-08T12:03:37;21.00;42.60
15384;DHT22;7790;53.022;12.968;2023-04-08T12:07:38;21.10;42.30
15384;DHT22;7790;53.022;12.968;2023-04-08T12:11:39;21.20;42.10
15384;DHT22;7790;53.022;12.968;2023-04-08T12:15:40;21.20;42.20
15384;DHT22;7790;53.022;12.968;2023-04-08T12:19:41;21.20;42.20
15384;DHT22;7790;53.022;12.968;2023-04-08T12:23:42;21.20;42.20
15384;DHT22;7790;53.022;12.968;2023-04-08T12:27:43;21.30;42.10
15384;DHT22;7790;53.022;12.968;2023-04-08T12:31:44;21.30;42.20
15384;DHT22;7790;53.022;12.968;2023-04-08T12:35:45;21.30;42.20
15384;DHT22;7790;53.022;12.968;2023-04-08T12:39:46;21.30;42.20
15384;DHT22;7790;53.022;12.968;2023-04-08T12:43:47;21.30;42.20
15384;DHT22;7790;53.022;12.968;2023-04-08T12:47:48;21.20;42.10
15384;DHT22;7790;53.022;12.968;2023-04-08T12:51:49;21.20;42.20
15384;DHT22;7790;53.022;12.968;2023-04-08T12:55:50;21.10;42.30
15384;DHT22;7790;53.022;12.968;2023-04-08T12:59:52;21.10;42.40
15384;DHT22;7790;53.022;12.968;2023-04-08T13:03:54;20.90;42.50
15384;DHT22;7790;53.022;12.968;2023-04-08T13:07:55;20.90;42.50
15384;DHT22;7790;53.022;12.968;2023-04-08T13:11:56;20.80;42.50
15384;DHT22;7790;53.022;12.968;2023-04-08T13:15:57;20.80;42.50
15384;DHT22;7790;53.022;12.968;2023-04-08T13:19:58;20.80;42.20
15384;DHT22;7790;53.022;12.968;2023-04-08T13:23:59;20.80;42.30
15384;DHT22;7790;53.022;12.968;2023-04-08T13:28:00;20.90;42.20
15384;DHT22;7790;53.022;12.968;2023-04-08T13:32:01;21.10;42.10
15384;DHT22;7790;53.022;12.968;2023-04-08T13:36:02;21.10;42.00
15384;DHT22;7790;53.022;12.968;2023-04-08T13:40:03;21.10;41.90
15384;DHT22;7790;53.022;12.968;2023-04-08T13:44:04;21.20;42.10
15384;DHT22;7790;53.022;12.968;2023-04-08T13:48:06;21.20;42.00
15384;DHT22;7790;53.022;12.968;2023-04-08T13:52:07;21.20;42.20
15384;DHT22;7790;53.022;12.968;2023-04-08T13:56:08;21.30;42.20
15384;DHT22;7790;53.022;12.968;2023-04-08T14:00:10;21.00;42.00
15384;DHT22;7790;53.022;12.968;2023-04-08T14:04:11;20.90;42.60
15384;DHT22;7790;53.022;12.968;2023-04-08T14:08:12;20.90;42.70
15384;DHT22;7790;53.022;12.968;2023-04-08T14:12:13;21.10;42.50
15384;DHT22;7790;53.022;12.968;2023-04-08T14:16:14;21.30;42.60
15384;DHT22;7790;53.022;12.968;2023-04-08T14:20:16;21.40;42.70
15384;DHT22;7790;53.022;12.968;2023-04-08T14:24:17;21.40;42.70
15384;DHT22;7790;53.022;12.968;2023-04-08T14:28:18;21.40;42.70
15384;DHT22;7790;53.022;12.968;2023-04-08T14:32:18;21.20;42.80
15384;DHT22;7790;53.022;12.968;2023-04-08T14:36:19;21.10;42.90
15384;DHT22;7790;53.022;12.968;2023-04-08T14:40:21;21.00;43.00
15384;DHT22;7790;53.022;12.968;2023-04-08T14:44:23;21.00;43.20
15384;DHT22;7790;53.022;12.968;2023-04-08T14:48:24;20.90;43.20
15384;DHT22;7790;53.022;12.968;2023-04-08T14:52:25;21.00;43.10
15384;DHT22;7790;53.022;12.968;2023-04-08T14:56:26;20.90;43.10
15384;DHT22;7790;53.022;12.968;2023-04-08T15:00:27;20.70;43.70
15384;DHT22;7790;53.022;12.968;2023-04-08T15:04:28;20.60;43.20
15384;DHT22;7790;53.022;12.968;2023-04-08T15:08:29;20.60;43.30
15384;DHT22;7790;53.022;12.968;2023-04-08T15:12:30;20.60;43.40
15384;DHT22;7790;53.022;12.968;2023-04-08T15:16:32;20.60;43.40
15384;DHT22;7790;53.022;12.968;2023-04-08T15:20:33;20.90;43.30
15384;DHT22;7790;53.022;12.968;2023-04-08T15:24:34;21.00;43.10
15384;DHT22;7790;53.022;12.968;2023-04-08T15:28:35;21.10;43.10
15384;DHT22;7790;53.022;12.968;2023-04-08T15:32:37;21.20;43.00
15384;DHT22;7790;53.022;12.968;2023-04-08T15:36:38;21.20;42.80
15384;DHT22;7790;53.022;12.968;2023-04-08T15:40:40;21.30;42.90
15384;DHT22;7790;53.022;12.968;2023-04-08T15:44:41;21.40;43.00
15384;DHT22;7790;53.022;12.968;2023-04-08T15:48:42;21.40;42.80
15384;DHT22;7790;53.022;12.968;2023-04-08T15:52:43;21.40;42.90
15384;DHT22;7790;53.022;12.968;2023-04-08T15:56:45;21.40;43.00
15384;DHT22;7790;53.022;12.968;2023-04-08T16:00:47;21.40;43.00
15384;DHT22;7790;53.022;12.968;2023-04-08T16:04:49;21.40;43.00
15384;DHT22;7790;53.022;12.968;2023-04-08T16:08:50;21.30;43.00
15384;DHT22;7790;53.022;12.968;2023-04-08T16:12:50;21.20;43.00
15384;DHT22;7790;53.022;12.968;2023-04-08T16:16:52;21.10;43.10
15384;DHT22;7790;53.022;12.968;2023-04-08T16:20:54;21.10;43.20
15384;DHT22;7790;53.022;12.968;2023-04-08T16:24:55;21.10;43.20
15384;DHT22;7790;53.022;12.968;2023-04-08T16:28:56;21.10;43.30
15384;DHT22;7790;53.022;12.968;2023-04-08T16:32:57;21.30;43.10
15384;DHT22;7790;53.022;12.968;2023-04-08T16:36:58;21.40;42.90
15384;DHT22;7790;53.022;12.968;2023-04-08T16:40:59;21.50;42.80
15384;DHT22;7790;53.022;12.968;2023-04-08T16:45:00;21.60;42.90
15384;DHT22;7790;53.022;12.968;2023-04-08T16:49:01;21.70;42.80
15384;DHT22;7790;53.022;12.968;2023-04-08T16:53:02;21.70;42.70
15384;DHT22;7790;53.022;12.968;2023-04-08T16:57:03;21.70;42.70
15384;DHT22;7790;53.022;12.968;2023-04-08T17:01:08;21.70;42.80
15384;DHT22;7790;53.022;12.968;2023-04-08T17:05:09;21.70;42.90
15384;DHT22;7790;53.022;12.968;2023-04-08T17:09:10;21.70;43.00
15384;DHT22;7790;53.022;12.968;2023-04-08T17:13:11;21.70;43.40
15384;DHT22;7790;53.022;12.968;2023-04-08T17:17:12;21.70;43.60
15384;DHT22;7790;53.022;12.968;2023-04-08T17:21:13;21.60;43.50
15384;DHT22;7790;53.022;12.968;2023-04-08T17:25:15;21.60;43.60
15384;DHT22;7790;53.022;12.968;2023-04-08T17:29:16;21.70;43.70
15384;DHT22;7790;53.022;12.968;2023-04-08T17:33:17;21.50;43.90
15384;DHT22;7790;53.022;12.968;2023-04-08T17:37:18;21.50;44.30
15384;DHT22;7790;53.022;12.968;2023-04-08T17:41:19;21.60;44.40
15384;DHT22;7790;53.022;12.968;2023-04-08T17:45:20;21.70;44.40
15384;DHT22;7790;53.022;12.968;2023-04-08T17:49:21;21.70;44.20
15384;DHT22;7790;53.022;12.968;2023-04-08T17:53:22;21.80;44.30
15384;DHT22;7790;53.022;12.968;2023-04-08T17:57:23;21.80;44.10
15384;DHT22;7790;53.022;12.968;2023-04-08T18:01:24;21.80;44.20
15384;DHT22;7790;53.022;12.968;2023-04-08T18:05:25;21.90;44.20
15384;DHT22;7790;53.022;12.968;2023-04-08T18:09:26;21.90;43.50
15384;DHT22;7790;53.022;12.968;2023-04-08T18:13:27;21.80;43.70
15384;DHT22;7790;53.022;12.968;2023-04-08T18:17:28;21.80;43.80
15384;DHT22;7790;53.022;12.968;2023-04-08T18:21:29;21.80;43.80
15384;DHT22;7790;53.022;12.968;2023-04-08T18:25:31;21.70;43.80
15384;DHT22;7790;53.022;12.968;2023-04-08T18:29:32;21.70;43.60
15384;DHT22;7790;53.022;12.968;2023-04-08T18:33:32;21.60;43.70
15384;DHT22;7790;53.022;12.968;2023-04-08T18:37:33;21.40;43.80
15384;DHT22;7790;53.022;12.968;2023-04-08T18:41:34;21.40;43.70
15384;DHT22;7790;53.022;12.968;2023-04-08T18:45:36;21.20;43.80
15384;DHT22;7790;53.022;12.968;2023-04-08T18:49:38;21.20;44.20
15384;DHT22;7790;53.022;12.968;2023-04-08T18:53:38;21.30;44.20
15384;DHT22;7790;53.022;12.968;2023-04-08T18:57:39;21.30;44.20
15384;DHT22;7790;53.022;12.968;2023-04-08T19:01:41;21.40;44.20
15384;DHT22;7790;53.022;12.968;2023-04-08T19:05:42;21.50;44.10
15384;DHT22;7790;53.022;12.968;2023-04-08T19:09:42;21.60;44.10
15384;DHT22;7790;53.022;12.968;2023-04-08T19:13:43;21.60;44.00
15384;DHT22;7790;53.022;12.968;2023-04-08T19:17:44;21.60;44.10
15384;DHT22;7790;53.022;12.968;2023-04-08T19:21:46;21.50;44.20
15384;DHT22;7790;53.022;12.968;2023-04-08T19:25:48;21.40;44.30
15384;DHT22;7790;53.022;12.968;2023-04-08T19:29:49;21.40;44.30
15384;DHT22;7790;53.022;12.968;2023-04-08T19:33:50;21.30;44.50
15384;DHT22;7790;53.022;12.968;2023-04-08T19:37:50;21.30;44.30
15384;DHT22;7790;53.022;12.968;2023-04-08T19:41:51;21.30;44.40
15384;DHT22;7790;53.022;12.968;2023-04-08T19:45:56;21.20;44.30
15384;DHT22;7790;53.022;12.968;2023-04-08T19:49:57;21.20;44.80
15384;DHT22;7790;53.022;12.968;2023-04-08T19:53:58;21.20;44.80
15384;DHT22;7790;53.022;12.968;2023-04-08T19:57:59;21.30;44.70
15384;DHT22;7790;53.022;12.968;2023-04-08T20:02:01;21.40;44.60
15384;DHT22;7790;53.022;12.968;2023-04-08T20:06:03;21.40;44.60
15384;DHT22;7790;53.022;12.968;2023-04-08T20:10:04;21.40;44.50
15384;DHT22;7790;53.022;12.968;2023-04-08T20:14:05;21.40;44.70
15384;DHT22;7790;53.022;12.968;2023-04-08T20:18:06;21.40;44.70
15384;DHT22;7790;53.022;12.968;2023-04-08T20:22:07;21.50;44.70
15384;DHT22;7790;53.022;12.968;2023-04-08T20:26:09;21.50;44.60
15384;DHT22;7790;53.022;12.968;2023-04-08T20:30:10;21.50;44.50
15384;DHT22;7790;53.022;12.968;2023-04-08T20:34:11;21.50;44.40
15384;DHT22;7790;53.022;12.968;2023-04-08T20:38:12;21.50;44.40
15384;DHT22;7790;53.022;12.968;2023-04-08T20:42:14;21.50;44.60
15384;DHT22;7790;53.022;12.968;2023-04-08T20:46:15;21.40;44.50
15384;DHT22;7790;53.022;12.968;2023-04-08T20:50:17;21.30;44.60
15384;DHT22;7790;53.022;12.968;2023-04-08T20:54:18;21.30;44.90
15384;DHT22;7790;53.022;12.968;2023-04-08T20:58:18;21.20;44.90
15384;DHT22;7790;53.022;12.968;2023-04-08T21:02:19;21.20;44.90
15384;DHT22;7790;53.022;12.968;2023-04-08T21:06:21;21.20;45.20
15384;DHT22;7790;53.022;12.968;2023-04-08T21:10:22;21.20;45.10
15384;DHT22;7790;53.022;12.968;2023-04-08T21:14:23;21.30;45.00
15384;DHT22;7790;53.022;12.968;2023-04-08T21:18:24;21.30;45.00
15384;DHT22;7790;53.022;12.968;2023-04-08T21:22:25;21.30;45.20
15384;DHT22;7790;53.022;12.968;2023-04-08T21:26:26;21.40;45.30
15384;DHT22;7790;53.022;12.968;2023-04-08T21:30:27;21.40;45.40
15384;DHT22;7790;53.022;12.968;2023-04-08T21:34:28;21.40;45.30
15384;DHT22;7790;53.022;12.968;2023-04-08T21:38:29;21.50;45.30
15384;DHT22;7790;53.022;12.968;2023-04-08T21:42:30;21.50;45.20
15384;DHT22;7790;53.022;12.968;2023-04-08T21:46:32;21.50;45.20
15384;DHT22;7790;53.022;12.968;2023-04-08T21:50:36;21.50;45.20
15384;DHT22;7790;53.022;12.968;2023-04-08T21:54:36;21.50;45.00
15384;DHT22;7790;53.022;12.968;2023-04-08T21:58:38;21.40;45.10
15384;DHT22;7790;53.022;12.968;2023-04-08T22:02:39;21.40;45.10
15384;DHT22;7790;53.022;12.968;2023-04-08T22:06:40;21.30;45.00
15384;DHT22;7790;53.022;12.968;2023-04-08T22:10:43;21.20;45.00
15384;DHT22;7790;53.022;12.968;2023-04-08T22:14:43;21.10;44.90
15384;DHT22;7790;53.022;12.968;2023-04-08T22:18:44;21.20;44.70
15384;DHT22;7790;53.022;12.968;2023-04-08T22:22:46;21.30;44.50
15384;DHT22;7790;53.022;12.968;2023-04-08T22:26:47;21.30;44.10
15384;DHT22;7790;53.022;12.968;2023-04-08T22:30:47;21.40;44.00
15384;DHT22;7790;53.022;12.968;2023-04-08T22:34:48;21.40;43.80
15384;DHT22;7790;53.022;12.968;2023-04-08T22:38:49;21.40;43.80
15384;DHT22;7790;53.022;12.968;2023-04-08T22:42:50;21.40;43.70
15384;DHT22;7790;53.022;12.968;2023-04-08T22:46:52;21.50;43.60
15384;DHT22;7790;53.022;12.968;2023-04-08T22:50:52;21.60;43.50
15384;DHT22;7790;53.022;12.968;2023-04-08T22:54:53;21.60;43.40
15384;DHT22;7790;53.022;12.968;2023-04-08T22:58:54;21.60;43.50
15384;DHT22;7790;53.022;12.968;2023-04-08T23:02:55;21.60;43.50
15384;DHT22;7790;53.022;12.968;2023-04-08T23:06:57;21.50;43.50
15384;DHT22;7790;53.022;12.968;2023-04-08T23:10:57;21.50;43.50
15384;DHT22;7790;53.022;12.968;2023-04-08T23:14:58;21.40;43.60
15384;DHT22;7790;53.022;12.968;2023-04-08T23:18:59;21.40;43.70
15384;DHT22;7790;53.022;12.968;2023-04-08T23:23:00;21.20;43.90
15384;DHT22;7790;53.022;12.968;2023-04-08T23:27:02;21.20;44.00
15384;DHT22;7790;53.022;12.968;2023-04-08T23:31:03;21.10;44.00
15384;DHT22;7790;53.022;12.968;2023-04-08T23:35:07;21.20;43.90
15384;DHT22;7790;53.022;12.968;2023-04-08T23:39:08;21.30;43.70
15384;DHT22;7790;53.022;12.968;2023-04-08T23:43:09;21.30;43.50
15384;DHT22;7790;53.022;12.968;2023-04-08T23:47:10;21.40;43.40
15384;DHT22;7790;53.022;12.968;2023-04-08T23:51:11;21.40;43.30
15384;DHT22;7790;53.022;12.968;2023-04-08T23:55:12;21.40;43.30
15384;DHT22;7790;53.022;12.968;2023-04-08T23:59:13;21.50;43.20
